Latest Coastal Weather Observations for Bougainville Reef

IDQ60701

Issued at 11:42 pm EST Friday 26 August 2016 (issued every 10 minutes, with the page automatically refreshed every 10 minutes)

About coastal observations | Map of coastal stations | Coastal observations for QLD | Marine services | Other Formats
Station Details ID: 200840 Name: BOUGAINVILLE REEF Lat: -15.49 Lon: 147.12 Height: 0.0 m
Data from the previous 72 hours. | See also: Recent months for locations in Queensland
Date/Time
EST
Temp
°C
Wind Pressure Rain since
9am
mm
Weather Cloud Vis
km
Sea
Height
m
Swell
Dir  Spd
kts
Gust
kts
hPa Trend Height
m
Period
s
Dir
26/11:30pm 24.6 SE 20 23 1015.6 - - - - - - - - -
26/11:00pm 24.8 SSE 22 25 1015.5 - - - - - - - - -
26/10:30pm 24.7 SE 22 25 1015.6 - - - - - - - - -
26/10:00pm 24.8 SE 22 25 1015.2 - - - - - - - - -
26/09:30pm 24.6 SE 22 25 1015.1 - - - - - - - - -
26/09:00pm 24.8 SE 20 25 1014.6 - - - - - - - - -
26/08:30pm 24.7 ESE 20 23 1014.4 - - - - - - - - -
26/08:00pm 24.8 SE 21 24 1013.7 - - - - - - - - -
26/07:30pm 24.7 SE 21 25 1013.7 - - - - - - - - -
26/07:00pm 24.6 SE 22 25 1013.2 - - - - - - - - -
26/06:30pm 24.8 SE 22 25 1013.2 - - - - - - - - -
26/06:22pm 24.8 SE 23 26 1013.1 - - - - - - - - -
26/06:00pm 24.7 SSE 24 26 1012.5 - - - - - - - - -
26/05:30pm 24.6 SSE 23 25 1012.5 - - - - - - - - -
26/05:00pm 24.7 SSE 23 25 1011.9 - - - - - - - - -
26/04:30pm 24.8 SSE 21 25 1012.0 - - - - - - - - -
26/04:00pm 24.9 SSE 21 25 1011.6 - - - - - - - - -
26/03:30pm 25.2 SSE 20 23 1011.6 - - - - - - - - -
26/03:00pm 25.3 S 21 23 1011.6 - - - - - - - - -
26/02:30pm 25.3 S 20 23 1011.8 - - - - - - - - -
26/02:00pm 25.3 S 17 22 1012.0 - - - - - - - - -
26/01:30pm 25.6 S 17 20 1012.1 - - - - - - - - -
26/01:00pm 25.7 S 17 19 1012.3 - - - - - - - - -
26/12:30pm 25.9 S 15 18 1012.6 - - - - - - - - -
26/12:00pm 25.7 SSW 14 15 1012.8 - - - - - - - - -
26/11:30am 25.6 SSW 14 15 1013.3 - - - - - - - - -
26/11:00am 25.5 SSW 11 13 1013.5 - - - - - - - - -
26/10:30am 25.7 SSW 13 14 1013.9 - - - - - - - - -
26/10:00am 25.7 SSW 12 14 1014.0 - - - - - - - - -
26/09:30am 25.6 S 11 13 1014.1 - - - - - - - - -
26/09:00am 25.9 S 10 11 1013.8 - - - - - - - - -
26/08:30am 25.8 S 9 10 1013.8 - - - - - - - - -
26/08:00am 25.8 S 9 10 1013.5 - - - - - - - - -
26/07:30am 25.8 S 9 9 1013.4 - - - - - - - - -
26/07:00am 25.5 S 9 10 1012.8 - - - - - - - - -
26/06:30am 25.5 S 11 11 1012.7 - - - - - - - - -
26/06:00am 25.3 S 11 12 1012.3 - - - - - - - - -
26/05:30am 25.4 S 11 12 1012.0 - - - - - - - - -
26/05:00am 25.4 SSE 10 12 1011.4 - - - - - - - - -
26/04:30am 25.4 S 9 11 1011.5 - - - - - - - - -
26/04:00am 25.3 S 10 12 1011.3 - - - - - - - - -
26/03:30am 25.5 SSE 11 12 1011.3 - - - - - - - - -
26/03:00am 25.4 SSE 11 11 1011.2 - - - - - - - - -
26/02:30am 25.5 SSE 12 13 1011.3 - - - - - - - - -
26/02:00am 25.4 SSE 12 13 1011.3 - - - - - - - - -
26/01:30am 25.4 SSE 12 14 1011.7 - - - - - - - - -
26/01:00am 25.6 SSE 11 13 1012.1 - - - - - - - - -
26/12:30am 25.6 SSE 11 13 1012.5 - - - - - - - - -
26/12:00am 25.6 SE 12 13 1012.5 - - - - - - - - -
 
Date/Time
EST
Temp
°C
Wind Pressure Rain since
9am
mm
Weather Cloud Vis
km
Sea
Height
m
Swell
Dir  Spd
kts
Gust
kts
hPa Trend Height
m
Period
s
Dir
25/11:30pm 25.6 ESE 12 14 1012.6 - - - - - - - - -
25/11:00pm 25.7 ESE 13 14 1012.3 - - - - - - - - -
25/10:30pm 25.7 SE 13 14 1012.4 - - - - - - - - -
25/10:00pm 25.6 SE 12 14 1012.2 - - - - - - - - -
25/09:30pm 25.8 SE 11 13 1012.2 - - - - - - - - -
25/09:00pm 25.9 ESE 12 14 1011.9 - - - - - - - - -
25/08:30pm 26.0 ESE 12 14 1011.9 - - - - - - - - -
25/08:00pm 26.2 ESE 9 13 1011.6 - - - - - - - - -
25/07:30pm 26.1 SE 9 11 1011.4 - - - - - - - - -
25/07:00pm 26.1 SSE 9 10 1011.1 - - - - - - - - -
25/06:30pm 26.1 SSE 9 9 1010.9 - - - - - - - - -
25/06:00pm 26.1 S 7 8 1010.4 - - - - - - - - -
25/05:30pm 26.2 S 8 9 1010.3 - - - - - - - - -
25/05:00pm 26.2 SSW 8 9 1010.0 - - - - - - - - -
25/04:30pm 26.3 SW 9 10 1009.9 - - - - - - - - -
25/04:00pm 26.3 SW 6 7 1009.5 - - - - - - - - -
25/03:30pm 26.5 WSW 7 8 1009.5 - - - - - - - - -
25/03:00pm 26.6 WSW 5 6 1009.3 - - - - - - - - -
25/02:30pm 26.7 CALM 0 4 1009.5 - - - - - - - - -
25/02:00pm 26.8 WSW 3 4 1009.6 - - - - - - - - -
25/01:30pm 26.6 WSW 3 4 1009.8 - - - - - - - - -
25/01:00pm 26.2 WSW 5 6 1010.2 - - - - - - - - -
25/12:30pm 26.1 WSW 6 7 1010.5 - - - - - - - - -
25/12:00pm 26.1 WSW 7 9 1010.9 - - - - - - - - -
25/11:30am 26.2 W 5 8 1011.3 - - - - - - - - -
25/11:00am 26.9 NW 4 4 1011.7 - - - - - - - - -
25/10:30am 26.7 NW 4 4 1011.9 - - - - - - - - -
25/10:00am 26.5 NW 5 5 1012.0 - - - - - - - - -
25/09:30am 26.3 NW 5 6 1012.1 - - - - - - - - -
25/09:00am 26.3 NW 5 6 1011.8 - - - - - - - - -
25/08:30am 26.2 NW 5 6 1011.8 - - - - - - - - -
25/08:00am 26.0 NW 6 6 1011.5 - - - - - - - - -
25/07:30am 26.0 NW 6 7 1011.4 - - - - - - - - -
25/07:00am 26.0 NNW 9 9 1011.1 - - - - - - - - -
25/06:30am 25.9 NNW 9 10 1010.9 - - - - - - - - -
25/06:00am 25.8 N 8 9 1010.5 - - - - - - - - -
25/05:30am 25.9 N 9 10 1010.4 - - - - - - - - -
25/05:00am 25.9 N 9 11 1010.1 - - - - - - - - -
25/04:30am 26.0 N 10 11 1010.1 - - - - - - - - -
25/04:00am 25.9 NNE 11 12 1009.6 - - - - - - - - -
25/03:30am 25.9 NNE 12 13 1009.6 - - - - - - - - -
25/03:00am 25.8 NNE 11 14 1009.5 - - - - - - - - -
25/02:30am 25.9 NNE 11 13 1009.6 - - - - - - - - -
25/02:00am 25.9 NNE 10 11 1009.8 - - - - - - - - -
25/01:30am 26.0 NNE 11 12 1010.0 - - - - - - - - -
25/01:00am 26.1 NNE 11 12 1010.2 - - - - - - - - -
25/12:30am 26.0 NNE 11 13 1010.5 - - - - - - - - -
25/12:00am 26.1 NNE 13 14 1010.6 - - - - - - - - -
 
Date/Time
EST
Temp
°C
Wind Pressure Rain since
9am
mm
Weather Cloud Vis
km
Sea
Height
m
Swell
Dir  Spd
kts
Gust
kts
hPa Trend Height
m
Period
s
Dir
24/11:30pm 26.1 NNE 14 15 1010.7 - - - - - - - - -
24/11:00pm 26.1 NNE 11 14 1010.9 - - - - - - - - -
24/10:30pm 26.1 NNE 11 13 1011.2 - - - - - - - - -
24/10:00pm 26.2 NNE 13 14 1011.1 - - - - - - - - -
24/09:30pm 26.3 NNE 14 15 1011.2 - - - - - - - - -
24/09:00pm 26.3 NNE 11 14 1011.3 - - - - - - - - -
24/08:30pm 26.4 NNE 11 12 1011.3 - - - - - - - - -
24/08:00pm 26.5 NNE 9 10 1010.8 - - - - - - - - -
24/07:30pm 26.5 NNE 9 10 1010.7 - - - - - - - - -
24/07:00pm 26.4 NE 9 9 1010.2 - - - - - - - - -
24/06:30pm 26.5 NNE 8 9 1010.1 - - - - - - - - -
24/06:00pm 26.7 NNE 7 8 1009.7 - - - - - - - - -
24/05:30pm 26.8 NE 6 7 1009.6 - - - - - - - - -
24/05:00pm 26.9 NNE 7 7 1009.4 - - - - - - - - -
24/04:30pm 27.5 NNE 6 6 1009.5 - - - - - - - - -
24/04:00pm 27.9 NNE 4 6 1009.3 - - - - - - - - -
24/03:30pm 28.1 NNE 5 6 1009.2 - - - - - - - - -
24/03:00pm 27.6 NNE 4 6 1009.3 - - - - - - - - -
24/02:30pm 27.6 CALM 0 0 1009.6 - - - - - - - - -
24/02:00pm 26.6 NE 5 6 1009.9 - - - - - - - - -
24/01:30pm 26.8 NE 4 5 1010.2 - - - - - - - - -
24/01:00pm 26.6 NE 5 5 1010.7 - - - - - - - - -
24/12:30pm 26.4 NE 4 5 1011.0 - - - - - - - - -
24/12:00pm 26.2 ENE 5 6 1011.4 - - - - - - - - -
24/11:30am 26.1 ENE 6 7 1011.7 - - - - - - - - -
24/11:00am 26.1 E 6 7 1012.4 - - - - - - - - -
24/10:30am 26.0 E 6 7 1012.6 - - - - - - - - -
24/10:00am 26.1 ENE 6 7 1012.8 - - - - - - - - -
24/09:30am 26.1 E 8 9 1013.1 - - - - - - - - -
24/09:00am 25.8 ENE 8 11 1012.6 - - - - - - - - -
24/08:30am 25.8 E 8 11 1012.6 - - - - - - - - -
24/08:00am 25.6 ESE 7 8 1012.2 - - - - - - - - -
24/07:30am 25.5 ESE 7 7 1012.1 - - - - - - - - -
24/07:00am 25.4 ESE 7 8 1011.5 - - - - - - - - -
24/06:30am 25.4 ESE 7 8 1011.3 - - - - - - - - -
24/06:00am 25.4 ESE 6 8 1010.7 - - - - - - - - -
24/05:30am 25.4 E 7 8 1010.6 - - - - - - - - -
24/05:00am 25.3 ESE 7 7 1010.1 - - - - - - - - -
24/04:30am 25.3 ESE 6 6 1010.1 - - - - - - - - -
24/04:00am 25.3 SSE 7 8 1009.6 - - - - - - - - -
24/03:30am 25.1 SSE 6 8 1009.6 - - - - - - - - -
24/03:00am 25.3 SSE 6 6 1009.5 - - - - - - - - -
24/02:30am 25.2 SE 6 8 1009.7 - - - - - - - - -
24/02:00am 25.2 SE 5 6 1009.8 - - - - - - - - -
24/01:30am 25.2 SE 6 6 1010.0 - - - - - - - - -
24/01:00am 25.2 ESE 7 8 1010.4 - - - - - - - - -
24/12:30am 25.2 ESE 6 7 1010.7 - - - - - - - - -
24/12:00am 25.2 ESE 6 7 1011.2 - - - - - - - - -

Other Formats:

Comma delimited format used in spreadsheet applications
http://www.bom.gov.au/fwo/IDQ60701/IDQ60701.95288.axf

JavaScript Object Notation format (JSON) in row-major order
http://www.bom.gov.au/fwo/IDQ60701/IDQ60701.95288.json